Albatros — C6CN4 — position and weather

sailwx.info

Track history (hours):
 
Tides and Currents Weather Stations Pressure Air Temp Water Temp Dewpoint Dewpoint Depression Visibility Wind Speed Wind Dir Waves Ship Positions

Albatros

Last reported at 2019-May-20 16:21 UTC. Time now 2019-May-20 16:40 UTC.
Position N 37°46' E 003°48'.

Length 205.5 m; beam 25.2 m; draft 7.6 m.

Type: Passenger vessel. MMSI: 308784000.

Date/timePositionNaut miles runAvg speedWind from/ knotsBaromVisibWave heightAir tempDewpointWater temp
2019-May-20 16:21N 37°46' E 003°48'41811.4
2019-May-19 03:33N 38°13' E 012°38'310.4
2019-May-19 03:15N 38°16' E 012°40'210.2
2019-May-19 03:00N 38°17' E 012°43'511.0
2019-May-19 02:30N 38°19' E 012°49'510.7
2019-May-19 02:00N 38°20' E 012°56'510.0
2019-May-19 01:30N 38°22' E 013°02'510.0
2019-May-19 01:00N 38°23' E 013°08'5 9.9
2019-May-19 00:30N 38°24' E 013°14'510.2
2019-May-19 00:00N 38°26' E 013°20'5 9.8
2019-May-18 23:30N 38°26' E 013°27'5 9.6
2019-May-18 23:00N 38°26' E 013°33'5 9.6
2019-May-18 22:30N 38°25' E 013°39'5 9.5
2019-May-18 22:00N 38°24' E 013°45'510.1
2019-May-18 21:30N 38°24' E 013°51'5 9.6
2019-May-18 21:00N 38°23' E 013°57'5 9.8
2019-May-18 20:30N 38°22' E 014°04'18 9.9
2019-May-18 18:41N 38°23' E 014°27'210.1
2019-May-18 18:27N 38°24' E 014°30'5 9.9
2019-May-18 17:59N 38°24' E 014°35'5 9.8
2019-May-18 17:30N 38°24' E 014°41'510.0
2019-May-18 17:00N 38°25' E 014°48'510.1
2019-May-18 16:30N 38°26' E 014°54'4 7.8
2019-May-18 16:00N 38°27' E 014°59'1 1.8
2019-May-18 15:27N 38°28' E 014°58'0 0.0
2019-May-18 15:00N 38°28' E 014°58'0 0.1
2019-May-18 14:21N 38°28' E 014°58'0 0.1
2019-May-18 14:00N 38°28' E 014°58'0 0.0
2019-May-18 13:30N 38°28' E 014°58'0 0.0
2019-May-18 13:00N 38°28' E 014°58'0 0.0
2019-May-18 12:30N 38°28' E 014°58'0 0.1
2019-May-18 12:00N 38°28' E 014°58'0 0.1
2019-May-18 11:21N 38°28' E 014°58'0 0.2
2019-May-18 11:00N 38°28' E 014°58'0 0.0
2019-May-18 10:30N 38°28' E 014°58'0 0.1
2019-May-18 10:00N 38°28' E 014°58'0 0.1
2019-May-18 09:30N 38°28' E 014°58'0 0.0
2019-May-18 08:51N 38°28' E 014°58'0 0.0
2019-May-18 08:30N 38°28' E 014°58'0 0.1
2019-May-18 07:57N 38°28' E 014°58'0 0.0
2019-May-18 07:22N 38°28' E 014°58'1 3.6
2019-May-18 07:00N 38°28' E 014°59'712.8
2019-May-18 06:29N 38°35' E 015°01'713.9
2019-May-18 06:00N 38°41' E 015°03'714.3
2019-May-18 05:30N 38°47' E 015°09'511.2
2019-May-18 05:00N 38°50' E 015°15'510.0
2019-May-18 04:31N 38°55' E 015°16'510.2
2019-May-18 04:00N 38°59' E 015°14'154 3.3
2019-May-16 05:23N 41°14' E 013°35'2 3.4
2019-May-16 04:54N 41°13' E 013°36'194 7.7
2019-May-15 03:46N 43°04' E 010°01'414.7
2019-May-15 03:30N 43°07' E 009°57'714.4
2019-May-15 03:00N 43°12' E 009°51'714.1
2019-May-15 02:30N 43°17' E 009°44'714.0
2019-May-15 02:00N 43°23' E 009°38'714.0
2019-May-15 01:31N 43°29' E 009°33'713.4
2019-May-15 01:00N 43°35' E 009°29'713.0
2019-May-15 00:30N 43°40' E 009°24'612.7
2019-May-15 00:00N 43°46' E 009°21'612.5
2019-May-14 23:31N 43°52' E 009°17'612.8
2019-May-14 23:01N 43°57' E 009°13'612.9
2019-May-14 22:31N 44°03' E 009°09'713.5
2019-May-14 22:00N 44°09' E 009°05'714.1
2019-May-14 21:31N 44°16' E 009°01'713.7
2019-May-14 21:00N 44°22' E 008°57'3 6.3
2019-May-14 20:30N 44°25' E 008°55'0 0.0
2019-May-14 20:00N 44°25' E 008°55'0 0.0
2019-May-14 19:30N 44°25' E 008°55'0 0.0
2019-May-14 19:00N 44°25' E 008°55'0 0.0
2019-May-14 18:30N 44°25' E 008°55'0 0.0
2019-May-14 18:00N 44°25' E 008°55'0 0.0
2019-May-14 17:30N 44°25' E 008°55'0 0.0
2019-May-14 17:00N 44°25' E 008°55'0 0.0
2019-May-14 16:30N 44°25' E 008°55'0 0.0
2019-May-14 16:00N 44°25' E 008°55'0 0.0
2019-May-14 15:30N 44°25' E 008°55'0 0.0
2019-May-14 15:00N 44°25' E 008°55'0 0.0
2019-May-14 14:30N 44°25' E 008°55'0 0.0
2019-May-14 14:00N 44°25' E 008°55'0 0.0
2019-May-14 13:30N 44°25' E 008°55'0 0.0
2019-May-14 13:00N 44°25' E 008°55'0 0.0
2019-May-14 12:31N 44°25' E 008°55'0 0.0
2019-May-14 12:00N 44°25' E 008°55'0 0.0
2019-May-14 11:30N 44°25' E 008°55'0 0.0
2019-May-14 11:00N 44°25' E 008°55'0 0.0
2019-May-14 10:30N 44°25' E 008°55'0 0.0
2019-May-14 10:01N 44°25' E 008°55'0 0.0
2019-May-14 09:30N 44°25' E 008°55'0 0.0
2019-May-14 09:01N 44°25' E 008°55'0 0.0
2019-May-14 08:31N 44°25' E 008°55'0 0.0
2019-May-14 08:00N 44°25' E 008°55'0 0.0
2019-May-14 07:30N 44°25' E 008°55'0 0.0
2019-May-14 07:00N 44°25' E 008°55'0 0.0
2019-May-14 06:30N 44°25' E 008°55'0 0.0
2019-May-14 06:01N 44°25' E 008°55'0 0.2
2019-May-14 05:31N 44°25' E 008°55'3 5.5
2019-May-14 05:00N 44°22' E 008°58'612.0
2019-May-14 04:30N 44°17' E 009°01'815.2
2019-May-14 04:00N 44°10' E 009°05'816.4
2019-May-14 03:30N 44°02' E 009°08'816.8
2019-May-14 03:00N 43°54' E 009°12'917.2
2019-May-14 02:30N 43°46' E 009°17'816.6
2019-May-14 02:00N 43°38' E 009°20'917.5
2019-May-14 01:30N 43°30' E 009°24'918.3
2019-May-14 01:00N 43°22' E 009°29'918.6
2019-May-14 00:30N 43°13' E 009°33'918.6
2019-May-14 00:00N 43°04' E 009°38'918.0
2019-May-13 23:30N 42°55' E 009°41'2116.2
2019-May-13 22:11N 42°35' E 009°48'32617.3
2019-May-13 03:22N 38°52' E 015°02'617.6
2019-May-13 03:00N 38°48' E 015°08'917.4
2019-May-13 02:30N 38°42' E 015°16'918.2
2019-May-13 02:01N 38°35' E 015°24'918.2
2019-May-13 01:30N 38°28' E 015°31'918.1
2019-May-13 01:01N 38°22' E 015°40'612.4
2019-May-13 00:31N 38°16' E 015°41'816.3
2019-May-13 00:00N 38°08' E 015°36'917.1
2019-May-12 23:31N 37°60' E 015°36'917.6
2019-May-12 23:01N 37°51' E 015°35'917.4
2019-May-12 22:31N 37°42' E 015°35'917.4
2019-May-12 22:01N 37°34' E 015°34'817.0
2019-May-12 21:31N 37°25' E 015°34'916.9
2019-May-12 20:59N 37°17' E 015°33'816.7
2019-May-12 20:30N 37°08' E 015°32'90 6.0
2019-May-12 05:26N 35°53' E 014°31'3 6.3
2019-May-12 05:00N 35°55' E 014°33'612.9
2019-May-12 04:30N 35°58' E 014°40'815.2
2019-May-12 04:00N 35°57' E 014°49'48215.4
2019-May-10 20:46N 33°41' E 024°12'517.3
2019-May-10 20:30N 33°40' E 024°18'1117.5
2019-May-10 19:51N 33°37' E 024°31'1217.5
2019-May-10 19:11N 33°33' E 024°44'317.4
2019-May-10 19:00N 33°32' E 024°48'1617.4
2019-May-10 18:05N 33°28' E 025°06'117.1
2019-May-10 18:00N 33°28' E 025°08'917.2
2019-May-10 17:31N 33°25' E 025°18'917.2
2019-May-10 17:01N 33°23' E 025°27'917.2
2019-May-10 16:31N 33°20' E 025°37'  
Track history (hours):
 
Tides and Currents Weather Stations Pressure Air Temp Water Temp Dewpoint Dewpoint Depression Visibility Wind Speed Wind Dir Waves Ship Positions

Albatros

Last reported at 2019-May-20 16:21 UTC. Time now 2019-May-20 16:40 UTC.
Position N 37°46' E 003°48'.

Length 205.5 m; beam 25.2 m; draft 7.6 m.

Type: Passenger vessel. MMSI: 308784000.

Date/timePositionNaut miles runAvg speedWind from/ knotsBaromVisibWave heightAir tempDewpointWater temp
2019-May-20 16:21N 37°46' E 003°48'41811.4
2019-May-19 03:33N 38°13' E 012°38'310.4
2019-May-19 03:15N 38°16' E 012°40'210.2
2019-May-19 03:00N 38°17' E 012°43'511.0
2019-May-19 02:30N 38°19' E 012°49'510.7
2019-May-19 02:00N 38°20' E 012°56'510.0
2019-May-19 01:30N 38°22' E 013°02'510.0
2019-May-19 01:00N 38°23' E 013°08'5 9.9
2019-May-19 00:30N 38°24' E 013°14'510.2
2019-May-19 00:00N 38°26' E 013°20'5 9.8
2019-May-18 23:30N 38°26' E 013°27'5 9.6
2019-May-18 23:00N 38°26' E 013°33'5 9.6
2019-May-18 22:30N 38°25' E 013°39'5 9.5
2019-May-18 22:00N 38°24' E 013°45'510.1
2019-May-18 21:30N 38°24' E 013°51'5 9.6
2019-May-18 21:00N 38°23' E 013°57'5 9.8
2019-May-18 20:30N 38°22' E 014°04'18 9.9
2019-May-18 18:41N 38°23' E 014°27'210.1
2019-May-18 18:27N 38°24' E 014°30'5 9.9
2019-May-18 17:59N 38°24' E 014°35'5 9.8
2019-May-18 17:30N 38°24' E 014°41'510.0
2019-May-18 17:00N 38°25' E 014°48'510.1
2019-May-18 16:30N 38°26' E 014°54'4 7.8
2019-May-18 16:00N 38°27' E 014°59'1 1.8
2019-May-18 15:27N 38°28' E 014°58'0 0.0
2019-May-18 15:00N 38°28' E 014°58'0 0.1
2019-May-18 14:21N 38°28' E 014°58'0 0.1
2019-May-18 14:00N 38°28' E 014°58'0 0.0
2019-May-18 13:30N 38°28' E 014°58'0 0.0
2019-May-18 13:00N 38°28' E 014°58'0 0.0
2019-May-18 12:30N 38°28' E 014°58'0 0.1
2019-May-18 12:00N 38°28' E 014°58'0 0.1
2019-May-18 11:21N 38°28' E 014°58'0 0.2
2019-May-18 11:00N 38°28' E 014°58'0 0.0
2019-May-18 10:30N 38°28' E 014°58'0 0.1
2019-May-18 10:00N 38°28' E 014°58'0 0.1
2019-May-18 09:30N 38°28' E 014°58'0 0.0
2019-May-18 08:51N 38°28' E 014°58'0 0.0
2019-May-18 08:30N 38°28' E 014°58'0 0.1
2019-May-18 07:57N 38°28' E 014°58'0 0.0
2019-May-18 07:22N 38°28' E 014°58'1 3.6
2019-May-18 07:00N 38°28' E 014°59'712.8
2019-May-18 06:29N 38°35' E 015°01'713.9
2019-May-18 06:00N 38°41' E 015°03'714.3
2019-May-18 05:30N 38°47' E 015°09'511.2
2019-May-18 05:00N 38°50' E 015°15'510.0
2019-May-18 04:31N 38°55' E 015°16'510.2
2019-May-18 04:00N 38°59' E 015°14'154 3.3
2019-May-16 05:23N 41°14' E 013°35'2 3.4
2019-May-16 04:54N 41°13' E 013°36'194 7.7
2019-May-15 03:46N 43°04' E 010°01'414.7
2019-May-15 03:30N 43°07' E 009°57'714.4
2019-May-15 03:00N 43°12' E 009°51'714.1
2019-May-15 02:30N 43°17' E 009°44'714.0
2019-May-15 02:00N 43°23' E 009°38'714.0
2019-May-15 01:31N 43°29' E 009°33'713.4
2019-May-15 01:00N 43°35' E 009°29'713.0
2019-May-15 00:30N 43°40' E 009°24'612.7
2019-May-15 00:00N 43°46' E 009°21'612.5
2019-May-14 23:31N 43°52' E 009°17'612.8
2019-May-14 23:01N 43°57' E 009°13'612.9
2019-May-14 22:31N 44°03' E 009°09'713.5
2019-May-14 22:00N 44°09' E 009°05'714.1
2019-May-14 21:31N 44°16' E 009°01'713.7
2019-May-14 21:00N 44°22' E 008°57'3 6.3
2019-May-14 20:30N 44°25' E 008°55'0 0.0
2019-May-14 20:00N 44°25' E 008°55'0 0.0
2019-May-14 19:30N 44°25' E 008°55'0 0.0
2019-May-14 19:00N 44°25' E 008°55'0 0.0
2019-May-14 18:30N 44°25' E 008°55'0 0.0
2019-May-14 18:00N 44°25' E 008°55'0 0.0
2019-May-14 17:30N 44°25' E 008°55'0 0.0
2019-May-14 17:00N 44°25' E 008°55'0 0.0
2019-May-14 16:30N 44°25' E 008°55'0 0.0
2019-May-14 16:00N 44°25' E 008°55'0 0.0
2019-May-14 15:30N 44°25' E 008°55'0 0.0
2019-May-14 15:00N 44°25' E 008°55'0 0.0
2019-May-14 14:30N 44°25' E 008°55'0 0.0
2019-May-14 14:00N 44°25' E 008°55'0 0.0
2019-May-14 13:30N 44°25' E 008°55'0 0.0
2019-May-14 13:00N 44°25' E 008°55'0 0.0
2019-May-14 12:31N 44°25' E 008°55'0 0.0
2019-May-14 12:00N 44°25' E 008°55'0 0.0
2019-May-14 11:30N 44°25' E 008°55'0 0.0
2019-May-14 11:00N 44°25' E 008°55'0 0.0
2019-May-14 10:30N 44°25' E 008°55'0 0.0
2019-May-14 10:01N 44°25' E 008°55'0 0.0
2019-May-14 09:30N 44°25' E 008°55'0 0.0
2019-May-14 09:01N 44°25' E 008°55'0 0.0
2019-May-14 08:31N 44°25' E 008°55'0 0.0
2019-May-14 08:00N 44°25' E 008°55'0 0.0
2019-May-14 07:30N 44°25' E 008°55'0 0.0
2019-May-14 07:00N 44°25' E 008°55'0 0.0
2019-May-14 06:30N 44°25' E 008°55'0 0.0
2019-May-14 06:01N 44°25' E 008°55'0 0.2
2019-May-14 05:31N 44°25' E 008°55'3 5.5
2019-May-14 05:00N 44°22' E 008°58'612.0
2019-May-14 04:30N 44°17' E 009°01'815.2
2019-May-14 04:00N 44°10' E 009°05'816.4
2019-May-14 03:30N 44°02' E 009°08'816.8
2019-May-14 03:00N 43°54' E 009°12'917.2
2019-May-14 02:30N 43°46' E 009°17'816.6
2019-May-14 02:00N 43°38' E 009°20'917.5
2019-May-14 01:30N 43°30' E 009°24'918.3
2019-May-14 01:00N 43°22' E 009°29'918.6
2019-May-14 00:30N 43°13' E 009°33'918.6
2019-May-14 00:00N 43°04' E 009°38'918.0
2019-May-13 23:30N 42°55' E 009°41'2116.2
2019-May-13 22:11N 42°35' E 009°48'32617.3
2019-May-13 03:22N 38°52' E 015°02'617.6
2019-May-13 03:00N 38°48' E 015°08'917.4
2019-May-13 02:30N 38°42' E 015°16'918.2
2019-May-13 02:01N 38°35' E 015°24'918.2
2019-May-13 01:30N 38°28' E 015°31'918.1
2019-May-13 01:01N 38°22' E 015°40'612.4
2019-May-13 00:31N 38°16' E 015°41'816.3
2019-May-13 00:00N 38°08' E 015°36'917.1
2019-May-12 23:31N 37°60' E 015°36'917.6
2019-May-12 23:01N 37°51' E 015°35'917.4
2019-May-12 22:31N 37°42' E 015°35'917.4
2019-May-12 22:01N 37°34' E 015°34'817.0
2019-May-12 21:31N 37°25' E 015°34'916.9
2019-May-12 20:59N 37°17' E 015°33'816.7
2019-May-12 20:30N 37°08' E 015°32'90 6.0
2019-May-12 05:26N 35°53' E 014°31'3 6.3
2019-May-12 05:00N 35°55' E 014°33'612.9
2019-May-12 04:30N 35°58' E 014°40'815.2
2019-May-12 04:00N 35°57' E 014°49'48215.4
2019-May-10 20:46N 33°41' E 024°12'517.3
2019-May-10 20:30N 33°40' E 024°18'1117.5
2019-May-10 19:51N 33°37' E 024°31'1217.5
2019-May-10 19:11N 33°33' E 024°44'317.4
2019-May-10 19:00N 33°32' E 024°48'1617.4
2019-May-10 18:05N 33°28' E 025°06'117.1
2019-May-10 18:00N 33°28' E 025°08'917.2
2019-May-10 17:31N 33°25' E 025°18'917.2
2019-May-10 17:01N 33°23' E 025°27'917.2
2019-May-10 16:31N 33°20' E 025°37'  

Dump ship's entire track history